In Rescue
 
Open Full Screen Window  High Contrast Mode
Wind Gusting 00 knots
11
November 29, 2022 9:19 AM CST
Weather Information
Wind Direction
  260 °
Wind Speed
  11 kt (13 mph)
Wind Gust
  00 kt (0 mph)
Altimeter
29.75 in
Visibility
10 SM
Temperature
-08° C
18° F
Dewpoint
-13° C
F
Humidity
68%
1hr Rain Fall
00.00 in.
24hr Rain Fall
00.00 in.
Sky Condition
Clear
VFR

METAR KJKJ 291519Z AUTO 26011KT 10SM CLR M08/M13 A2975 RMK AO2 TSNO

FAA Disclaimer: The data displayed is for advisory purposes only and is not to be used for flight planning or operations.